createdAt,value
2019-04-29T06:06:04.470Z,99.99
2019-04-29T06:07:04.412Z,99.99
2019-04-29T06:08:04.382Z,99.99
2019-04-29T06:09:04.355Z,99.99
2019-04-29T06:10:04.348Z,99.99
2019-04-29T06:11:04.322Z,99.99
2019-04-29T06:13:04.261Z,99.99
2019-04-29T06:14:04.229Z,99.99
2019-04-29T06:15:04.219Z,99.99
2019-04-29T06:16:04.180Z,99.99
2019-04-29T06:17:07.684Z,99.99
2019-04-29T06:18:04.133Z,99.99
2019-04-29T06:19:05.868Z,99.99
2019-04-29T06:20:04.103Z,99.99
2019-04-29T06:21:09.306Z,99.99
2019-04-29T06:22:04.077Z,99.99
2019-04-29T06:23:04.017Z,99.99
2019-04-29T06:24:06.102Z,99.99
2019-04-29T06:25:03.990Z,99.99
2019-04-29T06:26:03.951Z,99.99
2019-04-29T06:27:03.926Z,99.99
2019-04-29T06:28:03.902Z,99.99
2019-04-29T06:29:05.841Z,99.99
2019-04-29T06:36:51.957Z,99.99
2019-04-29T06:37:51.914Z,99.99
2019-04-29T06:38:51.900Z,99.99
2019-04-29T06:39:51.867Z,99.99
2019-04-29T06:40:51.856Z,99.99
2019-04-29T06:41:51.820Z,99.99
2019-04-29T06:42:53.480Z,99.99
2019-04-29T06:43:54.200Z,99.99
2019-04-29T06:44:51.752Z,99.99
2019-04-29T06:45:51.765Z,99.99
2019-04-29T06:46:54.583Z,99.99
2019-04-29T06:54:31.471Z,99.99
2019-04-29T06:55:31.434Z,99.99
2019-04-29T06:56:31.424Z,99.99
2019-04-29T06:57:31.386Z,99.99
2019-04-29T06:58:32.592Z,99.99
2019-04-29T06:59:31.340Z,99.99
2019-04-29T08:18:18.207Z,99.99
2019-04-29T08:19:17.940Z,99.99
2019-04-29T08:20:17.916Z,99.99
2019-04-29T08:21:17.891Z,99.99
2019-04-29T08:22:18.330Z,99.99
2019-04-29T08:23:17.862Z,99.99
2019-04-29T08:24:17.824Z,99.99
2019-04-29T08:25:21.804Z,99.99
2019-04-29T08:26:17.779Z,99.99
2019-04-29T08:27:17.760Z,99.99
2019-04-29T08:28:17.752Z,99.99
2019-04-29T08:29:17.716Z,99.99
2019-04-29T08:30:18.314Z,99.99
2019-04-29T08:31:21.070Z,99.99
2019-04-29T08:32:17.654Z,99.99
2019-04-29T08:33:17.647Z,99.99
2019-04-29T08:34:18.747Z,99.99
2019-04-29T09:13:59.726Z,95.84
2019-04-29T09:14:59.688Z,96.03
2019-04-29T09:15:59.668Z,95.37
2019-04-29T09:16:59.643Z,95.37
2019-04-29T09:17:59.623Z,94.51
2019-04-29T09:18:59.613Z,94.60
2019-04-29T09:19:59.579Z,95.12
2019-04-29T09:20:59.558Z,94.07
2019-04-29T09:21:59.543Z,93.70
2019-04-29T09:22:59.523Z,92.74
2019-04-29T09:23:59.514Z,93.17
2019-04-29T09:24:59.477Z,92.07
2019-04-29T09:26:02.784Z,91.60
2019-04-29T09:26:59.440Z,90.83
2019-04-29T09:27:59.424Z,91.41
2019-04-29T09:53:53.143Z,86.47
2019-04-29T09:54:53.123Z,85.57
2019-04-29T09:55:53.087Z,84.76
2019-04-29T09:56:53.067Z,84.80
2019-04-29T09:57:53.048Z,85.66
2019-04-29T09:58:53.032Z,84.70
2019-04-29T09:59:53.025Z,84.08
2019-04-29T10:00:52.989Z,82.89
2019-04-29T10:01:54.965Z,82.51
2019-04-29T10:02:52.951Z,82.70
2019-04-29T10:03:52.949Z,82.31
2019-04-29T10:04:56.719Z,82.12
2019-04-29T10:05:52.896Z,82.31
2019-04-29T10:06:52.878Z,81.68
2019-04-29T10:07:52.862Z,81.68
2019-04-29T10:08:52.843Z,81.16
2019-04-29T10:09:57.526Z,81.40
2019-04-29T10:10:52.827Z,81.30
2019-04-29T10:11:52.791Z,81.36
2019-04-29T10:12:54.077Z,80.59
2019-04-29T10:13:52.756Z,81.55
2019-04-29T10:14:52.743Z,80.69
2019-04-29T10:15:55.949Z,81.78
2019-04-29T10:16:52.703Z,81.11
2019-04-29T10:17:55.823Z,78.72
2019-04-29T10:18:52.670Z,78.43
2019-04-29T10:19:52.654Z,78.43
2019-04-29T10:20:52.651Z,79.10
2019-04-29T10:21:52.621Z,78.78
2019-04-29T10:22:53.746Z,78.87
2019-04-29T10:23:52.587Z,79.06
2019-04-29T10:24:52.568Z,79.20
2019-04-29T10:25:52.572Z,76.81
2019-04-29T10:26:52.539Z,75.70
2019-04-29T10:27:52.521Z,75.60
2019-04-29T10:28:52.506Z,76.65
2019-04-29T10:29:55.306Z,74.93
2019-04-29T10:30:52.486Z,75.31
2019-04-29T10:31:52.458Z,74.36
2019-04-29T10:32:52.457Z,75.45
2019-04-29T10:33:55.104Z,75.26
2019-04-29T10:34:52.405Z,74.45
2019-04-29T10:35:52.402Z,75.12
2019-04-29T10:36:53.634Z,74.93
2019-04-29T10:37:52.356Z,74.84
2019-04-29T10:38:52.342Z,74.30
2019-04-29T10:39:52.333Z,72.96
2019-04-29T10:40:52.322Z,73.54
2019-04-29T10:41:52.313Z,73.21
2019-04-29T10:42:52.278Z,72.34
2019-04-29T10:43:53.550Z,72.67
2019-04-29T10:44:52.246Z,72.96
2019-04-29T10:45:52.242Z,74.20
2019-04-29T10:46:52.214Z,73.21
2019-04-29T10:47:52.200Z,72.83
2019-04-29T10:48:52.182Z,72.73
2019-04-29T10:49:52.166Z,72.19
2019-04-29T10:50:52.466Z,72.42
2019-04-29T10:51:52.141Z,70.28
2019-04-29T10:52:52.124Z,69.99
2019-04-29T10:53:52.738Z,70.95
2019-04-29T10:54:55.379Z,70.31
2019-04-29T10:55:52.076Z,70.70
2019-04-29T10:56:52.074Z,68.97
2019-04-29T10:57:52.044Z,68.87
2019-04-29T10:58:52.027Z,68.52
2019-04-29T10:59:52.013Z,68.05
2019-04-29T11:00:52.728Z,67.28
2019-04-29T11:02:01.131Z,67.18
2019-04-29T11:02:51.966Z,68.01
2019-04-29T11:03:55.892Z,68.40
2019-04-29T11:04:51.946Z,68.24
2019-04-29T11:06:00.376Z,67.22
2019-04-29T11:06:51.923Z,66.06
2019-04-29T11:07:51.893Z,65.88
2019-04-29T11:08:51.886Z,66.00
2019-04-29T11:09:52.615Z,64.95
2019-04-29T11:10:51.849Z,66.49
2019-04-29T11:11:51.851Z,66.00
2019-04-29T11:12:51.821Z,65.52
2019-04-29T11:13:51.804Z,63.70
2019-04-29T11:14:51.791Z,63.70
2019-04-29T11:15:51.776Z,63.60
2019-04-29T11:16:51.775Z,62.01
2019-04-29T11:17:58.709Z,61.17
2019-04-29T11:18:54.958Z,61.62
2019-04-29T11:19:51.719Z,61.14
2019-04-29T11:20:53.662Z,61.14
2019-04-29T11:21:51.707Z,61.49
2019-04-29T11:22:51.675Z,61.26
2019-04-29T11:23:54.877Z,59.54
2019-04-29T11:24:51.647Z,62.07
2019-04-29T11:25:51.652Z,61.78
2019-04-29T11:26:51.635Z,62.87
2019-04-29T11:27:51.605Z,64.66
2019-04-29T11:28:52.386Z,66.77
2019-04-29T11:29:51.578Z,67.63
2019-04-29T11:30:51.563Z,67.82
2019-04-29T11:31:54.014Z,68.49
2019-04-29T11:32:51.534Z,68.11
2019-04-29T11:33:51.520Z,68.01
2019-04-29T11:34:53.396Z,68.27
2019-04-29T11:35:51.494Z,65.43
2019-04-29T11:36:51.500Z,62.10
2019-04-29T11:37:55.369Z,59.99
2019-04-29T11:38:51.451Z,59.44
2019-04-29T11:39:51.759Z,60.05
2019-04-29T11:40:51.424Z,60.91
2019-04-29T11:41:54.615Z,59.92
2019-04-29T11:42:51.410Z,60.02
2019-04-29T11:43:52.846Z,58.51
2019-04-29T11:44:51.372Z,59.28
2019-04-29T11:45:51.353Z,59.44
2019-04-29T11:46:51.343Z,61.17
2019-04-29T11:47:51.354Z,62.13
2019-04-29T11:48:51.312Z,62.65
2019-04-29T11:49:51.299Z,64.09
2019-04-29T11:50:54.762Z,64.34
2019-04-29T11:52:08.569Z,64.31
2019-04-29T11:52:51.272Z,65.71
2019-04-29T11:53:51.247Z,66.86
2019-04-29T11:54:51.236Z,68.01
2019-04-29T11:55:52.448Z,68.49
2019-04-29T11:56:51.203Z,67.98
2019-04-29T11:57:51.213Z,67.21
2019-04-29T11:58:51.179Z,67.21
2019-04-29T11:59:51.163Z,67.54
2019-04-29T12:00:52.074Z,63.86
2019-04-29T12:01:51.862Z,62.48
2019-04-29T12:02:51.148Z,61.78
2019-04-29T12:03:55.761Z,59.50
2019-04-29T12:04:51.089Z,58.67
2019-04-29T12:05:51.075Z,57.25
2019-04-29T12:06:55.746Z,56.29
2019-04-29T12:07:51.084Z,53.65
2019-04-29T12:08:53.222Z,52.47
2019-04-29T12:09:51.018Z,54.39
2019-04-29T12:11:05.929Z,55.20
2019-04-29T12:11:50.994Z,56.16
2019-04-29T12:12:51.042Z,57.00
2019-04-29T12:13:50.989Z,58.80
2019-04-29T12:14:50.951Z,60.38
2019-04-29T12:15:50.938Z,62.04
2019-04-29T12:16:50.923Z,62.77
2019-04-29T12:17:50.914Z,64.18
2019-04-29T12:18:50.911Z,65.42
2019-04-29T12:19:50.884Z,65.91
2019-04-29T12:20:50.870Z,66.09
2019-04-29T12:21:50.856Z,65.33
2019-04-29T12:22:50.854Z,65.42
2019-04-29T12:23:52.013Z,65.11
2019-04-29T12:24:50.814Z,62.65
2019-04-29T12:25:50.802Z,61.14
2019-04-29T12:26:50.787Z,61.40
2019-04-29T12:27:59.637Z,59.70
2019-04-29T12:28:50.775Z,58.73
2019-04-29T12:29:54.452Z,56.71
2019-04-29T12:30:50.730Z,56.58
2019-04-29T12:31:51.178Z,56.40
2019-04-29T12:32:50.704Z,57.23
2019-04-29T12:33:50.708Z,57.01
2019-04-29T12:34:50.696Z,60.18
2019-04-29T12:35:52.262Z,62.36
2019-04-29T12:36:55.985Z,63.09
2019-04-29T12:37:50.639Z,62.81
2019-04-29T12:38:51.095Z,63.92
2019-04-29T12:39:50.608Z,64.12
2019-04-29T12:40:54.692Z,65.17
2019-04-29T12:41:50.594Z,64.31
2019-04-29T12:42:50.597Z,64.53
2019-04-29T12:43:54.044Z,63.76
2019-04-29T12:44:50.563Z,63.48
2019-04-29T12:45:53.598Z,62.71
2019-04-29T12:46:50.516Z,62.33
2019-04-29T12:47:50.502Z,62.20
2019-04-29T12:48:50.497Z,63.83
2019-04-29T12:49:50.470Z,62.90
2019-04-29T12:50:55.231Z,62.13
2019-04-29T12:51:50.440Z,60.69
2019-04-29T12:52:50.434Z,59.34
2019-04-29T12:53:50.429Z,58.03
2019-04-29T12:54:50.400Z,57.55
2019-04-29T12:55:53.552Z,58.03
2019-04-29T12:56:50.372Z,57.71
2019-04-29T12:57:51.535Z,58.74
2019-04-29T12:58:50.849Z,60.11
2019-04-29T12:59:50.330Z,60.24
2019-04-29T13:01:00.107Z,57.87
2019-04-29T13:01:54.149Z,57.77
2019-04-29T13:02:50.306Z,57.48
2019-04-29T13:03:50.279Z,57.90
2019-04-29T13:04:51.521Z,58.71
2019-04-29T13:05:58.057Z,60.22
2019-04-29T13:06:50.238Z,61.27
2019-04-29T13:07:50.228Z,62.30
2019-04-29T13:08:50.214Z,62.42
2019-04-29T13:09:50.214Z,62.81
2019-04-29T13:10:50.187Z,62.13
2019-04-29T13:11:56.130Z,61.18
2019-04-29T13:12:50.159Z,61.62
2019-04-29T13:13:51.372Z,59.92
2019-04-29T13:15:02.255Z,59.03
2019-04-29T13:15:50.121Z,58.81
2019-04-29T13:16:50.866Z,58.84
2019-04-29T13:18:02.660Z,58.33
2019-04-29T13:18:53.959Z,58.45
2019-04-29T13:20:00.723Z,58.36
2019-04-29T13:20:52.140Z,57.65
2019-04-29T13:21:50.042Z,57.68
2019-04-29T13:22:50.030Z,57.21
2019-04-29T13:24:04.931Z,57.97
2019-04-29T13:24:50.013Z,57.97
2019-04-29T13:25:50.882Z,58.52
2019-04-29T13:26:49.978Z,59.12
2019-04-29T13:27:49.967Z,59.03
2019-04-29T13:29:00.277Z,59.12
2019-04-29T13:29:49.955Z,59.19
2019-04-29T13:30:51.337Z,60.05
2019-04-29T13:31:49.913Z,60.41
2019-04-29T13:32:49.900Z,60.38
2019-04-29T13:33:51.046Z,59.44
2019-04-29T13:34:49.890Z,57.45
2019-04-29T13:35:49.861Z,56.88
2019-04-29T13:37:06.037Z,54.99
2019-04-29T13:37:49.832Z,55.68
2019-04-29T13:38:49.820Z,54.82
2019-04-29T13:39:55.156Z,53.66
2019-04-29T13:40:49.815Z,55.44
2019-04-29T13:41:57.521Z,56.78
2019-04-29T13:42:51.077Z,57.62
2019-04-29T13:43:49.756Z,57.84
2019-04-29T13:45:05.028Z,57.75
2019-04-29T13:45:49.749Z,57.77
2019-04-29T13:46:51.083Z,57.84
2019-04-29T13:47:50.488Z,56.78
2019-04-29T13:48:56.007Z,56.30
2019-04-29T13:49:49.795Z,56.49
2019-04-29T13:50:49.686Z,56.95
2019-04-29T13:51:49.691Z,57.71
2019-04-29T13:52:49.691Z,57.52
2019-04-29T13:53:49.669Z,57.07
2019-04-29T13:54:49.688Z,56.85
2019-04-29T13:55:50.097Z,56.27
2019-04-29T13:56:55.975Z,56.98
2019-04-29T13:57:50.797Z,56.95
2019-04-29T13:58:49.605Z,56.56
2019-04-29T13:59:50.485Z,56.66
2019-04-29T14:00:49.565Z,57.71
2019-04-29T14:02:00.095Z,57.59
2019-04-29T14:02:58.719Z,58.48
2019-04-29T14:03:49.611Z,58.64
2019-04-29T14:04:49.507Z,58.45
2019-04-29T14:06:03.348Z,60.25
2019-04-29T14:06:56.654Z,60.63
2019-04-29T14:07:52.730Z,60.82
2019-04-29T14:08:49.450Z,62.16
2019-04-29T14:09:49.438Z,61.56
2019-04-29T14:10:51.090Z,61.30
2019-04-29T14:12:01.112Z,60.28
2019-04-29T14:13:00.766Z,58.74
2019-04-29T14:13:49.387Z,57.78
2019-04-29T14:14:49.377Z,57.68
2019-04-29T14:15:49.375Z,57.85
2019-04-29T14:16:49.349Z,58.52
2019-04-29T14:17:49.338Z,59.09
2019-04-29T14:18:49.949Z,60.08
2019-04-29T14:19:49.312Z,59.58
2019-04-29T14:20:51.779Z,60.15
2019-04-29T14:21:49.285Z,60.50
2019-04-29T14:22:49.272Z,61.30
2019-04-29T14:23:49.260Z,61.66
2019-04-29T14:24:49.246Z,62.13
2019-04-29T14:25:49.252Z,61.98
2019-04-29T14:26:49.219Z,61.21
2019-04-29T14:27:49.207Z,61.46
2019-04-29T14:28:49.206Z,61.30
2019-04-29T14:29:51.440Z,61.21
2019-04-29T14:30:49.311Z,61.30
2019-04-29T14:31:49.169Z,60.25
2019-04-29T14:32:49.808Z,60.47
2019-04-29T14:33:49.127Z,60.08
2019-04-29T14:34:49.116Z,60.18
2019-04-29T14:35:49.929Z,59.70
2019-04-29T14:36:49.106Z,60.38
2019-04-29T14:37:55.249Z,60.40
2019-04-29T14:38:49.065Z,59.99
2019-04-29T14:39:49.049Z,58.71
2019-04-29T14:40:49.036Z,60.05
2019-04-29T14:41:50.979Z,59.96
2019-04-29T14:42:57.429Z,61.46
2019-04-29T14:43:50.591Z,61.27
2019-04-29T14:44:48.984Z,61.63
2019-04-29T14:45:48.971Z,62.33
2019-04-29T14:46:48.969Z,61.27
2019-04-29T14:47:48.943Z,60.63
2019-04-29T14:48:48.942Z,60.82
2019-04-29T14:49:48.917Z,60.53
2019-04-29T14:50:49.494Z,60.03
2019-04-29T14:51:48.904Z,61.49
2019-04-29T14:52:49.445Z,60.35
2019-04-29T14:53:56.131Z,60.05
2019-04-29T14:54:48.849Z,59.48
2019-04-29T14:55:48.837Z,59.16
2019-04-29T14:56:48.837Z,60.03
2019-04-29T14:57:48.809Z,60.09
2019-04-29T14:58:48.843Z,60.99
2019-04-29T14:59:49.006Z,61.46
2019-04-29T15:00:48.792Z,61.46
2019-04-29T15:01:48.918Z,62.23
2019-04-29T15:02:48.764Z,61.94
2019-04-29T15:03:48.787Z,61.85
2019-04-29T15:04:48.735Z,62.39
2019-04-29T15:05:48.697Z,62.39
2019-04-29T15:06:48.831Z,63.09
2019-04-29T15:07:48.687Z,62.68
2019-04-29T15:08:48.661Z,62.96
2019-04-29T15:09:51.332Z,64.59
2019-04-29T15:10:48.667Z,65.05
2019-04-29T15:11:48.667Z,63.70
2019-04-29T15:12:52.041Z,63.60
2019-04-29T15:13:49.038Z,63.70
2019-04-29T15:14:48.569Z,63.70
2019-04-29T15:15:48.555Z,63.42
2019-04-29T15:16:48.539Z,63.51
2019-04-29T15:17:48.537Z,63.99
2019-04-29T15:18:50.648Z,63.70
2019-04-29T15:19:52.174Z,64.09
2019-04-29T15:20:48.479Z,63.99
2019-04-29T15:21:48.732Z,65.05
2019-04-29T15:22:48.466Z,65.23
2019-04-29T15:23:48.436Z,65.14
2019-04-29T15:24:48.419Z,65.14
2019-04-29T15:25:48.407Z,65.23
2019-04-29T15:26:48.390Z,64.28
2019-04-29T15:27:48.394Z,64.43
2019-04-29T15:28:48.360Z,64.95
2019-04-29T15:29:48.348Z,64.47
2019-04-29T15:30:48.333Z,64.28
2019-04-29T15:31:48.993Z,64.47
2019-04-29T15:32:48.319Z,64.56
2019-04-29T15:33:48.284Z,65.62
2019-04-29T15:34:49.745Z,65.52
2019-04-29T15:35:48.259Z,65.52
2019-04-29T15:36:48.238Z,64.66
2019-04-29T15:37:48.237Z,64.89
2019-04-29T15:39:07.994Z,65.05
2019-04-29T15:39:48.196Z,64.85
2019-04-29T15:40:48.178Z,65.81
2019-04-29T15:41:48.289Z,66.19
2019-04-29T15:42:50.043Z,65.30
2019-04-29T15:43:48.561Z,65.91
2019-04-29T15:44:51.647Z,66.29
2019-04-29T15:45:48.152Z,66.09
2019-04-29T15:46:48.085Z,66.00
2019-04-29T15:47:48.096Z,65.78
2019-04-29T15:48:48.095Z,65.91
2019-04-29T15:49:48.044Z,65.88
2019-04-29T15:50:48.023Z,65.68
2019-04-29T15:51:49.353Z,64.92
2019-04-29T15:52:48.007Z,65.30
2019-04-29T15:53:47.980Z,65.97
2019-04-29T15:54:51.060Z,65.97
2019-04-29T15:55:47.947Z,65.20
2019-04-29T15:56:47.947Z,65.78
2019-04-29T15:57:50.401Z,66.06
2019-04-29T15:58:48.067Z,66.16
2019-04-29T16:00:47.885Z,66.93
2019-04-29T16:01:47.905Z,67.21
2019-04-29T16:02:54.921Z,68.17
2019-04-29T16:03:49.942Z,67.50
2019-04-29T16:04:47.806Z,67.41
2019-04-29T16:06:11.224Z,67.41
2019-04-29T16:06:47.775Z,67.50
2019-04-29T16:07:51.519Z,68.07
2019-04-29T16:08:47.758Z,67.98
2019-04-29T16:09:51.877Z,68.36
2019-04-29T16:10:51.663Z,68.36
2019-04-29T16:11:47.692Z,69.13
2019-04-29T16:12:51.089Z,68.33
2019-04-29T16:13:49.936Z,68.33
2019-04-29T16:14:49.185Z,68.42
2019-04-29T16:15:47.632Z,69.00
2019-04-29T16:16:47.613Z,68.42
2019-04-29T16:17:47.596Z,68.42
2019-04-29T16:18:47.600Z,68.23
2019-04-29T16:19:47.566Z,68.65
2019-04-29T16:20:53.768Z,68.36
2019-04-29T16:21:47.532Z,68.94
2019-04-29T16:22:47.518Z,68.74
2019-04-29T16:23:47.520Z,68.46
2019-04-29T16:24:47.485Z,68.36
2019-04-29T16:25:52.434Z,68.27
2019-04-29T16:26:53.274Z,68.55
2019-04-29T16:27:53.053Z,69.13
2019-04-29T16:28:47.420Z,68.90
2019-04-29T16:29:51.705Z,68.80
2019-04-29T16:30:47.390Z,68.84
2019-04-29T16:31:47.370Z,69.00
2019-04-29T16:32:47.353Z,69.00
2019-04-29T16:33:54.729Z,68.80
2019-04-29T16:34:47.341Z,69.00
2019-04-29T16:35:47.305Z,68.71
2019-04-29T16:36:49.982Z,69.00
2019-04-29T16:37:47.272Z,68.71
2019-04-29T16:38:51.520Z,69.00
2019-04-29T16:39:47.252Z,69.38
2019-04-29T16:40:47.290Z,69.00
2019-04-29T16:41:51.011Z,68.80
2019-04-29T16:42:47.188Z,69.00
2019-04-29T16:43:47.173Z,69.67
2019-04-29T16:44:47.176Z,70.15
2019-04-29T16:45:51.764Z,69.86
2019-04-29T16:46:47.124Z,69.00
2019-04-29T16:47:48.664Z,69.19
2019-04-29T16:48:47.092Z,68.90
2019-04-29T16:49:47.088Z,69.00
2019-04-29T16:50:47.060Z,69.00
2019-04-29T16:51:47.846Z,69.67
2019-04-29T16:52:47.024Z,69.76
2019-04-29T16:53:47.009Z,69.76
2019-04-29T16:54:47.011Z,70.05
2019-04-29T16:55:46.973Z,71.01
2019-04-29T16:56:46.956Z,71.20
2019-04-29T16:57:46.941Z,70.91
2019-04-29T16:58:46.925Z,71.26
2019-04-29T16:59:46.921Z,71.07
2019-04-29T17:00:52.385Z,71.83
2019-04-29T17:01:46.874Z,72.88
2019-04-29T17:02:46.860Z,74.41
2019-04-29T17:03:46.841Z,75.62
2019-04-29T17:04:46.857Z,75.71
2019-04-29T17:05:46.808Z,75.81
2019-04-29T17:07:10.790Z,77.44
2019-04-29T17:07:46.773Z,76.86
2019-04-29T17:08:50.714Z,76.86
2019-04-29T17:09:46.756Z,78.78
2019-04-29T17:10:46.728Z,79.25
2019-04-29T17:11:50.407Z,81.13
2019-04-29T17:12:46.688Z,80.84
2019-04-29T17:13:46.672Z,81.22
2019-04-29T17:15:02.760Z,81.99
2019-04-29T17:15:52.248Z,83.18
2019-04-29T17:16:46.620Z,84.33
2019-04-29T17:17:46.606Z,85.38
2019-04-29T17:18:46.586Z,86.24
2019-04-29T17:19:46.569Z,87.29
2019-04-29T17:20:46.565Z,86.24
2019-04-29T17:21:46.537Z,86.82
2019-04-29T17:22:46.537Z,88.25
2019-04-29T17:23:46.500Z,88.25
2019-04-29T17:24:46.482Z,88.54
2019-04-29T17:25:46.484Z,91.64
2019-04-29T17:26:46.451Z,90.69
2019-04-29T17:27:46.430Z,90.59
2019-04-29T17:28:46.411Z,91.74
2019-04-29T17:29:49.595Z,90.88
2019-04-29T17:30:48.608Z,92.31
2019-04-29T17:31:55.953Z,94.51
2019-04-29T17:32:48.443Z,93.65
2019-04-29T17:33:49.868Z,93.55
2019-04-29T17:34:58.699Z,95.56
2019-04-29T17:35:18.936Z,66.54
2019-04-29T17:35:47.772Z,96.61
2019-04-29T17:36:46.270Z,96.61
2019-04-29T17:37:46.254Z,97.32
2019-04-29T17:38:46.235Z,97.03
2019-04-29T17:39:46.221Z,98.85
2019-04-29T17:40:51.212Z,99.61
2019-04-29T17:41:46.181Z,97.51
2019-04-29T17:42:46.166Z,99.04
2019-04-29T17:43:46.145Z,99.32
2019-04-29T17:44:46.125Z,99.04
2019-04-29T17:45:46.121Z,99.71
2019-04-29T17:46:46.093Z,99.99
2019-04-29T17:47:47.359Z,99.99
2019-04-29T17:48:48.583Z,99.99
2019-04-29T17:49:46.036Z,99.99
2019-04-29T17:50:47.719Z,99.99
2019-04-29T17:51:46.049Z,99.99
2019-04-29T17:52:45.982Z,99.99
2019-04-29T17:53:46.070Z,99.99
2019-04-29T17:54:45.997Z,99.99
2019-04-29T17:55:45.981Z,99.99
2019-04-29T17:56:45.910Z,99.99
2019-04-29T17:57:45.890Z,99.99
2019-04-29T17:58:51.322Z,99.99
2019-04-29T17:59:45.918Z,99.99
2019-04-29T18:00:55.428Z,99.99
2019-04-29T18:01:46.919Z,99.99
2019-04-29T18:02:45.825Z,99.99
2019-04-29T18:03:46.054Z,99.99
2019-04-29T18:04:45.763Z,99.99
2019-04-29T18:05:54.923Z,99.99
2019-04-29T18:06:45.728Z,99.99
2019-04-29T18:07:51.686Z,99.99
2019-04-29T18:08:45.690Z,99.99
2019-04-29T18:09:47.494Z,99.99
2019-04-29T18:10:45.882Z,99.99
2019-04-29T18:11:51.529Z,99.99
2019-04-29T18:12:45.614Z,99.99
2019-04-29T18:13:45.953Z,99.99
2019-04-29T18:14:45.579Z,99.99
2019-04-29T18:15:58.605Z,99.99
2019-04-29T18:16:47.808Z,99.99
2019-04-29T18:17:45.534Z,99.99
2019-04-29T18:18:49.170Z,99.99
2019-04-29T18:19:47.181Z,99.99
2019-04-29T18:20:47.219Z,99.99
2019-04-29T18:21:47.416Z,99.99
2019-04-29T18:22:45.430Z,99.99
2019-04-29T18:23:47.080Z,99.99
2019-04-29T18:24:45.398Z,99.99
2019-04-29T18:25:45.379Z,99.99
2019-04-29T18:26:48.121Z,99.99
2019-04-29T18:27:48.975Z,99.99
2019-04-29T18:28:45.747Z,99.99
2019-04-29T18:29:45.834Z,99.99
2019-04-29T18:30:45.281Z,99.99
2019-04-29T18:31:46.599Z,99.99
2019-04-29T18:32:46.703Z,99.99
2019-04-29T18:33:45.231Z,99.99
2019-04-29T18:34:45.352Z,99.99
2019-04-29T18:35:46.714Z,99.99
2019-04-29T18:36:45.777Z,99.99
2019-04-29T18:37:45.598Z,99.99
2019-04-29T18:38:47.355Z,99.99
2019-04-29T18:39:45.115Z,99.99
2019-04-29T18:40:46.783Z,99.99
2019-04-29T18:41:45.090Z,99.99
2019-04-29T18:42:48.448Z,99.99
2019-04-29T18:43:45.232Z,99.99
2019-04-29T18:44:56.528Z,99.99
2019-04-29T18:45:55.542Z,99.99
2019-04-29T18:46:53.226Z,99.99
2019-04-29T18:47:44.967Z,99.99
2019-04-29T18:48:45.685Z,99.99
2019-04-29T18:49:45.414Z,99.99
2019-04-29T18:50:44.910Z,99.99
2019-04-29T18:51:45.556Z,99.99
2019-04-29T18:52:45.855Z,99.99
2019-04-29T18:53:44.853Z,99.99
2019-04-29T18:54:45.066Z,99.99
2019-04-29T18:55:45.094Z,99.99
2019-04-29T18:56:45.662Z,99.99
2019-04-29T18:57:44.780Z,99.99
2019-04-29T18:58:46.907Z,99.99
2019-04-29T18:59:45.830Z,99.99
2019-04-29T19:00:49.530Z,99.99
2019-04-29T19:01:45.103Z,99.99
2019-04-29T19:02:47.948Z,99.99
2019-04-29T19:03:45.776Z,99.99
2019-04-29T19:04:46.816Z,99.99
2019-04-29T19:05:45.388Z,99.99
2019-04-29T19:06:44.626Z,99.99
2019-04-29T19:07:55.039Z,99.99
2019-04-29T19:08:44.968Z,99.99
2019-04-29T19:09:45.322Z,99.99
2019-04-29T19:10:49.908Z,99.99
2019-04-29T19:11:46.192Z,99.99
2019-04-29T19:12:46.005Z,99.99
2019-04-29T19:13:48.424Z,99.99
2019-04-29T19:14:47.629Z,99.99
2019-04-29T19:15:47.447Z,99.99
2019-04-29T19:16:45.864Z,99.99
2019-04-29T19:17:46.605Z,99.99
2019-04-29T19:18:45.076Z,99.99
2019-04-29T19:19:45.222Z,99.99
2019-04-29T19:20:47.827Z,99.99
2019-04-29T19:21:45.535Z,99.99
2019-04-29T19:22:47.254Z,99.99
2019-04-29T19:23:45.846Z,99.99
2019-04-29T19:24:47.954Z,99.99
2019-04-29T19:25:48.316Z,99.99
2019-04-29T19:26:44.865Z,99.99
2019-04-29T19:27:45.432Z,99.99
2019-04-29T19:28:45.184Z,99.99
2019-04-29T19:29:44.575Z,99.99
2019-04-29T19:30:45.161Z,99.99
2019-04-29T19:31:48.336Z,99.99
2019-04-29T19:32:45.054Z,99.99
2019-04-29T19:33:45.854Z,99.99
2019-04-29T19:34:45.875Z,99.99
2019-04-29T19:35:45.144Z,99.99
2019-04-29T19:36:45.138Z,99.99
2019-04-29T19:37:45.317Z,99.99
2019-04-29T19:38:47.230Z,99.99
2019-04-29T19:39:44.929Z,99.99
2019-04-29T19:40:43.978Z,99.99
2019-04-29T19:41:45.470Z,99.99
2019-04-29T19:42:46.926Z,99.99
2019-04-29T19:43:48.258Z,99.99
2019-04-29T19:44:45.259Z,99.99
2019-04-29T19:45:44.771Z,99.99
2019-04-29T19:46:45.364Z,99.99
2019-04-29T19:47:47.393Z,99.99
2019-04-29T19:48:45.142Z,99.99
2019-04-29T19:49:44.640Z,99.99
2019-04-29T19:50:45.223Z,99.99
2019-04-29T19:51:47.230Z,99.99
2019-04-29T19:52:45.401Z,99.99
2019-04-29T19:53:49.139Z,99.99
2019-04-29T19:54:43.746Z,99.99
2019-04-29T19:55:45.605Z,99.99
2019-04-29T19:56:43.676Z,99.99
2019-04-29T19:57:48.047Z,99.99
2019-04-29T19:58:43.956Z,99.99
2019-04-29T19:59:51.496Z,99.99
2019-04-29T20:00:44.225Z,99.99
2019-04-29T20:01:48.461Z,99.99
2019-04-29T20:02:48.216Z,99.99
2019-04-29T20:03:47.354Z,99.99
2019-04-29T20:04:43.825Z,99.99
2019-04-29T20:05:45.842Z,99.99
2019-04-29T20:06:45.629Z,99.99
2019-04-29T20:07:46.381Z,99.99
2019-04-29T20:08:54.208Z,99.99
2019-04-29T20:09:44.338Z,99.99
2019-04-29T20:10:48.211Z,99.99
2019-04-29T20:11:45.413Z,99.99
2019-04-29T20:12:46.097Z,99.99
2019-04-29T20:13:58.329Z,99.99
2019-04-29T20:14:43.655Z,99.99
2019-04-29T20:15:45.552Z,99.99
2019-04-29T20:16:52.611Z,99.99
2019-04-29T20:17:45.781Z,99.99
2019-04-29T20:18:56.178Z,99.99
2019-04-29T20:19:45.614Z,99.99
2019-04-29T20:20:43.312Z,99.99
2019-04-29T20:21:43.308Z,99.99
2019-04-29T20:22:48.836Z,99.99
2019-04-29T20:23:43.240Z,99.99
2019-04-29T20:24:49.308Z,99.99
2019-04-29T20:25:43.256Z,99.99
2019-04-29T20:26:44.149Z,99.99
2019-04-29T20:27:43.554Z,99.99
2019-04-29T20:28:43.179Z,99.99
2019-04-29T20:29:43.218Z,99.99
2019-04-29T20:30:43.138Z,99.99
2019-04-29T20:31:48.576Z,99.99
2019-04-29T20:32:43.180Z,99.99
2019-04-29T20:33:46.846Z,99.99
2019-04-29T20:34:43.018Z,99.99
2019-04-29T20:35:45.442Z,99.99
2019-04-29T20:36:43.179Z,99.99
2019-04-29T20:37:43.358Z,99.99
2019-04-29T20:38:43.023Z,99.99
2019-04-29T20:39:42.990Z,99.99
2019-04-29T20:40:43.601Z,99.99
2019-04-29T20:41:44.825Z,99.99
2019-04-29T20:42:45.325Z,99.99
2019-04-29T20:43:42.951Z,99.99
2019-04-29T20:44:47.620Z,99.99
2019-04-29T20:45:42.824Z,99.99
2019-04-29T20:46:51.714Z,99.99
2019-04-29T20:47:42.773Z,99.99
2019-04-29T20:48:42.777Z,99.99
2019-04-29T20:49:42.771Z,99.99
2019-04-29T20:50:47.737Z,99.99
2019-04-29T20:51:49.659Z,99.99
2019-04-29T20:52:42.737Z,99.99
